sensor_id;sensor_type;location;lat;lon;timestamp;P1;durP1;ratioP1;P2;durP2;ratioP2
72920;SDS011;61064;51.654;5.476;2023-07-24T00:00:02;6.80;;;1.70;;
72920;SDS011;61064;51.654;5.476;2023-07-24T00:02:28;7.30;;;1.52;;
72920;SDS011;61064;51.654;5.476;2023-07-24T00:04:53;5.60;;;1.57;;
72920;SDS011;61064;51.654;5.476;2023-07-24T00:07:19;6.27;;;1.53;;
72920;SDS011;61064;51.654;5.476;2023-07-24T00:09:44;6.20;;;1.80;;
72920;SDS011;61064;51.654;5.476;2023-07-24T00:12:09;5.90;;;1.90;;
72920;SDS011;61064;51.654;5.476;2023-07-24T00:14:35;5.90;;;1.77;;
72920;SDS011;61064;51.654;5.476;2023-07-24T00:17:00;8.30;;;1.90;;
72920;SDS011;61064;51.654;5.476;2023-07-24T00:19:26;7.07;;;1.80;;
72920;SDS011;61064;51.654;5.476;2023-07-24T00:21:51;6.20;;;2.20;;
72920;SDS011;61064;51.654;5.476;2023-07-24T00:24:16;6.20;;;1.83;;
72920;SDS011;61064;51.654;5.476;2023-07-24T00:26:42;6.97;;;1.90;;
72920;SDS011;61064;51.654;5.476;2023-07-24T00:29:07;5.83;;;2.03;;
72920;SDS011;61064;51.654;5.476;2023-07-24T00:31:33;6.72;;;1.80;;
72920;SDS011;61064;51.654;5.476;2023-07-24T00:33:58;6.27;;;2.23;;
72920;SDS011;61064;51.654;5.476;2023-07-24T00:36:25;6.20;;;1.77;;
72920;SDS011;61064;51.654;5.476;2023-07-24T00:38:51;7.53;;;2.17;;
72920;SDS011;61064;51.654;5.476;2023-07-24T00:41:16;7.03;;;2.00;;
72920;SDS011;61064;51.654;5.476;2023-07-24T00:43:44;6.23;;;2.00;;
72920;SDS011;61064;51.654;5.476;2023-07-24T00:46:10;7.00;;;2.13;;
72920;SDS011;61064;51.654;5.476;2023-07-24T00:48:37;6.53;;;2.17;;
72920;SDS011;61064;51.654;5.476;2023-07-24T00:51:03;6.20;;;2.20;;
72920;SDS011;61064;51.654;5.476;2023-07-24T00:53:28;6.43;;;2.20;;
72920;SDS011;61064;51.654;5.476;2023-07-24T00:55:54;6.40;;;2.07;;
72920;SDS011;61064;51.654;5.476;2023-07-24T00:58:19;6.97;;;2.23;;
72920;SDS011;61064;51.654;5.476;2023-07-24T01:00:46;5.97;;;1.85;;
72920;SDS011;61064;51.654;5.476;2023-07-24T01:03:11;7.43;;;2.33;;
72920;SDS011;61064;51.654;5.476;2023-07-24T01:05:37;6.20;;;2.20;;
72920;SDS011;61064;51.654;5.476;2023-07-24T01:08:03;6.60;;;2.07;;
72920;SDS011;61064;51.654;5.476;2023-07-24T01:10:29;7.05;;;2.22;;
72920;SDS011;61064;51.654;5.476;2023-07-24T01:12:58;6.30;;;2.10;;
72920;SDS011;61064;51.654;5.476;2023-07-24T01:18:13;6.63;;;2.72;;
72920;SDS011;61064;51.654;5.476;2023-07-24T01:20:49;7.27;;;2.20;;
72920;SDS011;61064;51.654;5.476;2023-07-24T01:26:00;6.95;;;2.50;;
72920;SDS011;61064;51.654;5.476;2023-07-24T01:28:27;7.07;;;2.33;;
72920;SDS011;61064;51.654;5.476;2023-07-24T01:30:53;6.78;;;2.78;;
72920;SDS011;61064;51.654;5.476;2023-07-24T01:33:20;7.10;;;2.20;;
72920;SDS011;61064;51.654;5.476;2023-07-24T01:35:48;6.70;;;2.28;;
72920;SDS011;61064;51.654;5.476;2023-07-24T01:38:15;10.43;;;2.80;;
72920;SDS011;61064;51.654;5.476;2023-07-24T01:40:41;7.82;;;2.30;;
72920;SDS011;61064;51.654;5.476;2023-07-24T01:43:08;8.40;;;2.70;;
72920;SDS011;61064;51.654;5.476;2023-07-24T01:45:33;7.30;;;2.60;;
72920;SDS011;61064;51.654;5.476;2023-07-24T01:47:59;6.53;;;2.42;;
72920;SDS011;61064;51.654;5.476;2023-07-24T01:50:24;7.73;;;2.80;;
72920;SDS011;61064;51.654;5.476;2023-07-24T01:52:50;9.87;;;2.57;;
72920;SDS011;61064;51.654;5.476;2023-07-24T01:55:15;9.27;;;2.67;;
72920;SDS011;61064;51.654;5.476;2023-07-24T01:57:41;8.90;;;3.00;;
72920;SDS011;61064;51.654;5.476;2023-07-24T02:00:06;8.97;;;2.80;;
72920;SDS011;61064;51.654;5.476;2023-07-24T02:02:32;7.85;;;2.88;;
72920;SDS011;61064;51.654;5.476;2023-07-24T02:04:58;9.30;;;2.73;;
72920;SDS011;61064;51.654;5.476;2023-07-24T02:07:23;7.90;;;2.67;;
72920;SDS011;61064;51.654;5.476;2023-07-24T02:09:48;8.97;;;2.73;;
72920;SDS011;61064;51.654;5.476;2023-07-24T02:12:14;11.00;;;2.77;;
72920;SDS011;61064;51.654;5.476;2023-07-24T02:14:40;8.40;;;2.80;;
72920;SDS011;61064;51.654;5.476;2023-07-24T02:17:05;6.53;;;2.20;;
72920;SDS011;61064;51.654;5.476;2023-07-24T02:19:30;7.20;;;2.17;;
72920;SDS011;61064;51.654;5.476;2023-07-24T02:21:56;6.77;;;2.20;;
72920;SDS011;61064;51.654;5.476;2023-07-24T02:24:21;7.13;;;2.07;;
72920;SDS011;61064;51.654;5.476;2023-07-24T02:26:46;7.00;;;2.27;;
72920;SDS011;61064;51.654;5.476;2023-07-24T02:29:12;5.73;;;1.80;;
72920;SDS011;61064;51.654;5.476;2023-07-24T02:31:37;6.22;;;1.98;;
72920;SDS011;61064;51.654;5.476;2023-07-24T02:34:02;5.90;;;1.70;;
72920;SDS011;61064;51.654;5.476;2023-07-24T02:36:28;5.53;;;1.70;;
72920;SDS011;61064;51.654;5.476;2023-07-24T02:38:56;6.45;;;1.90;;
72920;SDS011;61064;51.654;5.476;2023-07-24T02:41:22;6.57;;;2.00;;
72920;SDS011;61064;51.654;5.476;2023-07-24T02:43:47;8.13;;;1.90;;
72920;SDS011;61064;51.654;5.476;2023-07-24T02:46:12;6.30;;;1.70;;
72920;SDS011;61064;51.654;5.476;2023-07-24T02:48:38;5.57;;;1.70;;
72920;SDS011;61064;51.654;5.476;2023-07-24T02:51:03;6.07;;;1.80;;
72920;SDS011;61064;51.654;5.476;2023-07-24T02:53:28;6.43;;;2.03;;
72920;SDS011;61064;51.654;5.476;2023-07-24T02:55:54;6.40;;;1.77;;
72920;SDS011;61064;51.654;5.476;2023-07-24T02:58:19;5.67;;;1.73;;
72920;SDS011;61064;51.654;5.476;2023-07-24T03:00:45;6.47;;;2.00;;
72920;SDS011;61064;51.654;5.476;2023-07-24T03:03:10;6.23;;;2.10;;
72920;SDS011;61064;51.654;5.476;2023-07-24T03:05:35;6.67;;;1.93;;
72920;SDS011;61064;51.654;5.476;2023-07-24T03:08:01;5.73;;;1.70;;
72920;SDS011;61064;51.654;5.476;2023-07-24T03:10:26;6.50;;;1.60;;
72920;SDS011;61064;51.654;5.476;2023-07-24T03:12:52;5.80;;;1.80;;
72920;SDS011;61064;51.654;5.476;2023-07-24T03:15:18;5.10;;;1.57;;
72920;SDS011;61064;51.654;5.476;2023-07-24T03:17:44;5.65;;;1.50;;
72920;SDS011;61064;51.654;5.476;2023-07-24T03:20:16;5.93;;;1.70;;
72920;SDS011;61064;51.654;5.476;2023-07-24T03:22:44;6.35;;;1.50;;
72920;SDS011;61064;51.654;5.476;2023-07-24T03:25:10;5.47;;;1.60;;
72920;SDS011;61064;51.654;5.476;2023-07-24T03:27:36;5.00;;;1.60;;
72920;SDS011;61064;51.654;5.476;2023-07-24T03:30:01;6.13;;;1.80;;
72920;SDS011;61064;51.654;5.476;2023-07-24T03:32:28;6.57;;;1.90;;
72920;SDS011;61064;51.654;5.476;2023-07-24T03:34:54;5.47;;;1.60;;
72920;SDS011;61064;51.654;5.476;2023-07-24T03:37:19;5.17;;;1.63;;
72920;SDS011;61064;51.654;5.476;2023-07-24T03:39:44;6.27;;;1.70;;
72920;SDS011;61064;51.654;5.476;2023-07-24T03:42:10;5.60;;;1.65;;
72920;SDS011;61064;51.654;5.476;2023-07-24T03:44:41;5.57;;;1.60;;
72920;SDS011;61064;51.654;5.476;2023-07-24T03:47:07;6.20;;;1.77;;
72920;SDS011;61064;51.654;5.476;2023-07-24T03:49:33;7.20;;;2.03;;
72920;SDS011;61064;51.654;5.476;2023-07-24T03:51:59;6.37;;;2.03;;
72920;SDS011;61064;51.654;5.476;2023-07-24T03:54:24;7.87;;;2.53;;
72920;SDS011;61064;51.654;5.476;2023-07-24T03:56:49;7.33;;;2.20;;
72920;SDS011;61064;51.654;5.476;2023-07-24T03:59:15;6.57;;;1.90;;
72920;SDS011;61064;51.654;5.476;2023-07-24T04:01:40;5.50;;;1.87;;
72920;SDS011;61064;51.654;5.476;2023-07-24T04:04:06;6.03;;;2.33;;
72920;SDS011;61064;51.654;5.476;2023-07-24T04:06:31;6.45;;;2.50;;
72920;SDS011;61064;51.654;5.476;2023-07-24T04:09:08;7.18;;;2.30;;
72920;SDS011;61064;51.654;5.476;2023-07-24T04:11:39;6.80;;;2.33;;
72920;SDS011;61064;51.654;5.476;2023-07-24T04:14:09;6.83;;;2.30;;
72920;SDS011;61064;51.654;5.476;2023-07-24T04:16:35;9.68;;;2.60;;
72920;SDS011;61064;51.654;5.476;2023-07-24T04:19:01;7.82;;;2.72;;
72920;SDS011;61064;51.654;5.476;2023-07-24T04:21:26;7.93;;;2.50;;
72920;SDS011;61064;51.654;5.476;2023-07-24T04:23:55;8.05;;;2.83;;
72920;SDS011;61064;51.654;5.476;2023-07-24T04:26:20;8.20;;;2.90;;
72920;SDS011;61064;51.654;5.476;2023-07-24T04:28:46;6.10;;;2.47;;
72920;SDS011;61064;51.654;5.476;2023-07-24T04:31:20;7.28;;;2.47;;
72920;SDS011;61064;51.654;5.476;2023-07-24T04:33:46;7.10;;;2.70;;
72920;SDS011;61064;51.654;5.476;2023-07-24T04:36:20;7.80;;;3.00;;
72920;SDS011;61064;51.654;5.476;2023-07-24T04:38:45;7.40;;;3.08;;
72920;SDS011;61064;51.654;5.476;2023-07-24T04:41:12;8.18;;;3.30;;
72920;SDS011;61064;51.654;5.476;2023-07-24T04:43:37;9.10;;;3.13;;
72920;SDS011;61064;51.654;5.476;2023-07-24T04:46:03;7.03;;;3.30;;
72920;SDS011;61064;51.654;5.476;2023-07-24T04:48:28;9.80;;;3.80;;
72920;SDS011;61064;51.654;5.476;2023-07-24T04:50:54;7.77;;;3.70;;
72920;SDS011;61064;51.654;5.476;2023-07-24T04:53:20;8.43;;;3.60;;
72920;SDS011;61064;51.654;5.476;2023-07-24T04:55:46;9.10;;;4.10;;
72920;SDS011;61064;51.654;5.476;2023-07-24T04:58:15;7.90;;;3.65;;
72920;SDS011;61064;51.654;5.476;2023-07-24T05:00:40;8.38;;;3.90;;
72920;SDS011;61064;51.654;5.476;2023-07-24T05:03:05;8.20;;;3.67;;
72920;SDS011;61064;51.654;5.476;2023-07-24T05:05:34;7.53;;;3.28;;
72920;SDS011;61064;51.654;5.476;2023-07-24T05:07:59;8.23;;;3.50;;
72920;SDS011;61064;51.654;5.476;2023-07-24T05:10:24;7.67;;;3.80;;
72920;SDS011;61064;51.654;5.476;2023-07-24T05:12:50;8.33;;;3.50;;
72920;SDS011;61064;51.654;5.476;2023-07-24T05:15:15;9.60;;;3.50;;
72920;SDS011;61064;51.654;5.476;2023-07-24T05:17:42;8.00;;;3.58;;
72920;SDS011;61064;51.654;5.476;2023-07-24T05:20:08;9.57;;;4.47;;
72920;SDS011;61064;51.654;5.476;2023-07-24T05:22:34;9.02;;;4.07;;
72920;SDS011;61064;51.654;5.476;2023-07-24T05:24:59;9.13;;;3.97;;
72920;SDS011;61064;51.654;5.476;2023-07-24T05:27:25;10.10;;;3.63;;
72920;SDS011;61064;51.654;5.476;2023-07-24T05:29:50;9.63;;;4.20;;
72920;SDS011;61064;51.654;5.476;2023-07-24T05:32:16;8.65;;;4.22;;
72920;SDS011;61064;51.654;5.476;2023-07-24T05:34:41;10.20;;;4.13;;
72920;SDS011;61064;51.654;5.476;2023-07-24T05:37:06;9.33;;;4.10;;
72920;SDS011;61064;51.654;5.476;2023-07-24T05:39:32;9.03;;;3.93;;
72920;SDS011;61064;51.654;5.476;2023-07-24T05:41:57;8.25;;;4.07;;
72920;SDS011;61064;51.654;5.476;2023-07-24T05:44:23;9.07;;;4.50;;
72920;SDS011;61064;51.654;5.476;2023-07-24T05:46:48;9.10;;;4.13;;
72920;SDS011;61064;51.654;5.476;2023-07-24T05:49:13;9.07;;;4.40;;
72920;SDS011;61064;51.654;5.476;2023-07-24T05:51:39;9.77;;;4.00;;
72920;SDS011;61064;51.654;5.476;2023-07-24T05:54:04;9.37;;;4.40;;
72920;SDS011;61064;51.654;5.476;2023-07-24T05:56:29;8.93;;;4.20;;
72920;SDS011;61064;51.654;5.476;2023-07-24T05:58:55;9.03;;;4.10;;
72920;SDS011;61064;51.654;5.476;2023-07-24T06:01:20;9.73;;;4.20;;
72920;SDS011;61064;51.654;5.476;2023-07-24T06:03:46;10.50;;;4.13;;
72920;SDS011;61064;51.654;5.476;2023-07-24T06:06:11;10.27;;;4.13;;
72920;SDS011;61064;51.654;5.476;2023-07-24T06:08:36;10.67;;;4.40;;
72920;SDS011;61064;51.654;5.476;2023-07-24T06:11:02;10.60;;;4.50;;
72920;SDS011;61064;51.654;5.476;2023-07-24T06:13:27;9.57;;;4.33;;
72920;SDS011;61064;51.654;5.476;2023-07-24T06:15:54;10.68;;;4.80;;
72920;SDS011;61064;51.654;5.476;2023-07-24T06:18:19;11.03;;;4.70;;
72920;SDS011;61064;51.654;5.476;2023-07-24T06:20:44;11.43;;;5.13;;
72920;SDS011;61064;51.654;5.476;2023-07-24T06:23:10;12.18;;;5.05;;
72920;SDS011;61064;51.654;5.476;2023-07-24T06:25:35;10.03;;;4.77;;
72920;SDS011;61064;51.654;5.476;2023-07-24T06:28:02;9.98;;;4.40;;
72920;SDS011;61064;51.654;5.476;2023-07-24T06:30:28;9.37;;;4.40;;
72920;SDS011;61064;51.654;5.476;2023-07-24T06:32:53;9.52;;;4.40;;
72920;SDS011;61064;51.654;5.476;2023-07-24T06:35:19;11.33;;;4.40;;
72920;SDS011;61064;51.654;5.476;2023-07-24T06:37:44;8.83;;;4.17;;
72920;SDS011;61064;51.654;5.476;2023-07-24T06:40:11;9.70;;;3.85;;
72920;SDS011;61064;51.654;5.476;2023-07-24T06:42:37;10.23;;;4.43;;
72920;SDS011;61064;51.654;5.476;2023-07-24T06:45:02;10.90;;;4.37;;
72920;SDS011;61064;51.654;5.476;2023-07-24T06:47:28;10.10;;;4.25;;
72920;SDS011;61064;51.654;5.476;2023-07-24T06:49:54;10.67;;;4.70;;
72920;SDS011;61064;51.654;5.476;2023-07-24T06:52:19;14.03;;;5.07;;
72920;SDS011;61064;51.654;5.476;2023-07-24T06:54:44;10.03;;;5.47;;
72920;SDS011;61064;51.654;5.476;2023-07-24T06:57:10;11.80;;;5.68;;
72920;SDS011;61064;51.654;5.476;2023-07-24T06:59:35;13.37;;;5.60;;
72920;SDS011;61064;51.654;5.476;2023-07-24T07:02:01;12.33;;;6.13;;
72920;SDS011;61064;51.654;5.476;2023-07-24T07:04:28;12.90;;;5.93;;
72920;SDS011;61064;51.654;5.476;2023-07-24T07:06:53;13.23;;;6.20;;
72920;SDS011;61064;51.654;5.476;2023-07-24T07:09:19;12.63;;;6.03;;
72920;SDS011;61064;51.654;5.476;2023-07-24T07:11:44;13.20;;;6.53;;
72920;SDS011;61064;51.654;5.476;2023-07-24T07:14:10;13.17;;;6.63;;
72920;SDS011;61064;51.654;5.476;2023-07-24T07:16:35;13.50;;;6.20;;
72920;SDS011;61064;51.654;5.476;2023-07-24T07:19:01;12.60;;;6.00;;
72920;SDS011;61064;51.654;5.476;2023-07-24T07:21:26;12.25;;;6.20;;
72920;SDS011;61064;51.654;5.476;2023-07-24T07:23:53;12.33;;;5.83;;
72920;SDS011;61064;51.654;5.476;2023-07-24T07:26:19;13.68;;;6.05;;
72920;SDS011;61064;51.654;5.476;2023-07-24T07:28:45;12.93;;;6.13;;
72920;SDS011;61064;51.654;5.476;2023-07-24T07:31:11;13.13;;;6.27;;
72920;SDS011;61064;51.654;5.476;2023-07-24T07:33:36;13.30;;;6.07;;
72920;SDS011;61064;51.654;5.476;2023-07-24T07:36:04;12.60;;;6.10;;
72920;SDS011;61064;51.654;5.476;2023-07-24T07:38:31;12.70;;;6.40;;
72920;SDS011;61064;51.654;5.476;2023-07-24T07:40:56;11.77;;;6.13;;
72920;SDS011;61064;51.654;5.476;2023-07-24T07:43:22;13.00;;;6.73;;
72920;SDS011;61064;51.654;5.476;2023-07-24T07:45:48;11.50;;;6.17;;
72920;SDS011;61064;51.654;5.476;2023-07-24T07:48:13;11.87;;;5.70;;
72920;SDS011;61064;51.654;5.476;2023-07-24T07:50:38;11.73;;;5.53;;
72920;SDS011;61064;51.654;5.476;2023-07-24T07:53:06;10.87;;;4.87;;
72920;SDS011;61064;51.654;5.476;2023-07-24T07:55:31;9.38;;;4.93;;
72920;SDS011;61064;51.654;5.476;2023-07-24T07:57:57;9.63;;;4.73;;
72920;SDS011;61064;51.654;5.476;2023-07-24T08:00:22;10.38;;;4.97;;
72920;SDS011;61064;51.654;5.476;2023-07-24T08:02:47;9.47;;;4.83;;
72920;SDS011;61064;51.654;5.476;2023-07-24T08:05:13;10.23;;;5.10;;
72920;SDS011;61064;51.654;5.476;2023-07-24T08:07:39;13.00;;;5.07;;
72920;SDS011;61064;51.654;5.476;2023-07-24T08:10:04;10.60;;;5.30;;
72920;SDS011;61064;51.654;5.476;2023-07-24T08:12:31;10.38;;;5.22;;
72920;SDS011;61064;51.654;5.476;2023-07-24T08:14:57;11.10;;;5.37;;
72920;SDS011;61064;51.654;5.476;2023-07-24T08:17:22;11.17;;;5.00;;
72920;SDS011;61064;51.654;5.476;2023-07-24T08:19:48;13.90;;;5.43;;
72920;SDS011;61064;51.654;5.476;2023-07-24T08:22:13;12.70;;;5.63;;
72920;SDS011;61064;51.654;5.476;2023-07-24T08:24:38;10.97;;;5.40;;
72920;SDS011;61064;51.654;5.476;2023-07-24T08:27:04;11.53;;;5.40;;
72920;SDS011;61064;51.654;5.476;2023-07-24T08:29:29;10.45;;;5.20;;
72920;SDS011;61064;51.654;5.476;2023-07-24T08:31:55;11.00;;;5.40;;
72920;SDS011;61064;51.654;5.476;2023-07-24T08:34:21;11.33;;;5.40;;
72920;SDS011;61064;51.654;5.476;2023-07-24T08:36:47;9.20;;;4.57;;
72920;SDS011;61064;51.654;5.476;2023-07-24T08:39:12;9.60;;;4.43;;
72920;SDS011;61064;51.654;5.476;2023-07-24T08:41:38;10.32;;;5.63;;
72920;SDS011;61064;51.654;5.476;2023-07-24T08:44:03;11.93;;;5.57;;
72920;SDS011;61064;51.654;5.476;2023-07-24T08:46:33;11.45;;;5.72;;
72920;SDS011;61064;51.654;5.476;2023-07-24T08:49:01;11.32;;;6.22;;
72920;SDS011;61064;51.654;5.476;2023-07-24T08:51:28;11.70;;;6.10;;
72920;SDS011;61064;51.654;5.476;2023-07-24T08:53:56;11.07;;;6.07;;
72920;SDS011;61064;51.654;5.476;2023-07-24T08:56:22;13.02;;;6.60;;
72920;SDS011;61064;51.654;5.476;2023-07-24T08:58:47;14.17;;;7.27;;
72920;SDS011;61064;51.654;5.476;2023-07-24T09:01:13;12.30;;;6.60;;
72920;SDS011;61064;51.654;5.476;2023-07-24T09:03:39;12.93;;;7.30;;
72920;SDS011;61064;51.654;5.476;2023-07-24T09:06:05;11.97;;;7.00;;
72920;SDS011;61064;51.654;5.476;2023-07-24T09:08:33;13.30;;;7.18;;
72920;SDS011;61064;51.654;5.476;2023-07-24T09:11:00;12.67;;;7.20;;
72920;SDS011;61064;51.654;5.476;2023-07-24T09:13:27;13.60;;;7.47;;
72920;SDS011;61064;51.654;5.476;2023-07-24T09:15:53;11.95;;;7.35;;
72920;SDS011;61064;51.654;5.476;2023-07-24T09:18:19;12.23;;;7.47;;
72920;SDS011;61064;51.654;5.476;2023-07-24T09:20:45;11.57;;;6.67;;
72920;SDS011;61064;51.654;5.476;2023-07-24T09:23:11;13.35;;;7.63;;
72920;SDS011;61064;51.654;5.476;2023-07-24T09:25:38;12.98;;;6.50;;
72920;SDS011;61064;51.654;5.476;2023-07-24T09:28:09;11.43;;;7.17;;
72920;SDS011;61064;51.654;5.476;2023-07-24T09:30:36;11.35;;;6.47;;
72920;SDS011;61064;51.654;5.476;2023-07-24T09:33:02;11.02;;;5.72;;
72920;SDS011;61064;51.654;5.476;2023-07-24T09:35:27;11.27;;;5.40;;
72920;SDS011;61064;51.654;5.476;2023-07-24T09:38:14;9.18;;;4.78;;
72920;SDS011;61064;51.654;5.476;2023-07-24T09:43:24;9.27;;;5.35;;
72920;SDS011;61064;51.654;5.476;2023-07-24T09:45:52;9.23;;;4.72;;
72920;SDS011;61064;51.654;5.476;2023-07-24T09:48:19;9.90;;;5.13;;
72920;SDS011;61064;51.654;5.476;2023-07-24T09:50:46;11.23;;;5.50;;
72920;SDS011;61064;51.654;5.476;2023-07-24T09:56:14;9.57;;;4.93;;
72920;SDS011;61064;51.654;5.476;2023-07-24T09:58:42;10.02;;;4.80;;
72920;SDS011;61064;51.654;5.476;2023-07-24T10:01:09;9.80;;;4.93;;
72920;SDS011;61064;51.654;5.476;2023-07-24T10:03:38;10.52;;;4.90;;
72920;SDS011;61064;51.654;5.476;2023-07-24T10:06:05;9.32;;;4.82;;
72920;SDS011;61064;51.654;5.476;2023-07-24T10:08:31;9.90;;;5.10;;
72920;SDS011;61064;51.654;5.476;2023-07-24T10:11:00;9.77;;;5.10;;
72920;SDS011;61064;51.654;5.476;2023-07-24T10:13:26;10.00;;;5.10;;
72920;SDS011;61064;51.654;5.476;2023-07-24T10:15:52;10.20;;;4.95;;
72920;SDS011;61064;51.654;5.476;2023-07-24T10:18:25;9.97;;;4.83;;
72920;SDS011;61064;51.654;5.476;2023-07-24T10:21:04;11.13;;;5.35;;
72920;SDS011;61064;51.654;5.476;2023-07-24T10:23:50;9.25;;;5.28;;
72920;SDS011;61064;51.654;5.476;2023-07-24T10:26:15;9.13;;;5.03;;
72920;SDS011;61064;51.654;5.476;2023-07-24T10:28:41;11.23;;;5.97;;
72920;SDS011;61064;51.654;5.476;2023-07-24T10:31:23;9.53;;;5.30;;
72920;SDS011;61064;51.654;5.476;2023-07-24T10:33:52;10.02;;;5.40;;
72920;SDS011;61064;51.654;5.476;2023-07-24T10:36:19;9.95;;;5.57;;
72920;SDS011;61064;51.654;5.476;2023-07-24T10:38:52;11.00;;;5.63;;
72920;SDS011;61064;51.654;5.476;2023-07-24T10:41:21;9.98;;;6.10;;
72920;SDS011;61064;51.654;5.476;2023-07-24T10:43:50;10.97;;;5.60;;
72920;SDS011;61064;51.654;5.476;2023-07-24T10:46:18;10.40;;;5.78;;
72920;SDS011;61064;51.654;5.476;2023-07-24T10:48:48;11.77;;;6.40;;
72920;SDS011;61064;51.654;5.476;2023-07-24T10:51:14;10.80;;;6.32;;
72920;SDS011;61064;51.654;5.476;2023-07-24T10:53:44;11.73;;;5.97;;
72920;SDS011;61064;51.654;5.476;2023-07-24T10:56:13;11.77;;;6.10;;
72920;SDS011;61064;51.654;5.476;2023-07-24T10:58:39;11.77;;;6.72;;
72920;SDS011;61064;51.654;5.476;2023-07-24T11:01:06;10.57;;;6.20;;
72920;SDS011;61064;51.654;5.476;2023-07-24T11:03:32;11.18;;;5.57;;
72920;SDS011;61064;51.654;5.476;2023-07-24T11:06:00;10.60;;;5.82;;
72920;SDS011;61064;51.654;5.476;2023-07-24T11:08:27;10.90;;;5.47;;
72920;SDS011;61064;51.654;5.476;2023-07-24T11:10:58;11.23;;;5.40;;
72920;SDS011;61064;51.654;5.476;2023-07-24T11:13:25;8.43;;;4.70;;
72920;SDS011;61064;51.654;5.476;2023-07-24T11:15:52;9.95;;;4.75;;
72920;SDS011;61064;51.654;5.476;2023-07-24T11:18:18;9.73;;;4.70;;
72920;SDS011;61064;51.654;5.476;2023-07-24T11:20:48;9.10;;;4.43;;
72920;SDS011;61064;51.654;5.476;2023-07-24T11:23:15;8.80;;;4.83;;
72920;SDS011;61064;51.654;5.476;2023-07-24T11:25:40;10.70;;;5.10;;
72920;SDS011;61064;51.654;5.476;2023-07-24T11:28:06;10.87;;;5.07;;
72920;SDS011;61064;51.654;5.476;2023-07-24T11:30:33;10.05;;;5.47;;
72920;SDS011;61064;51.654;5.476;2023-07-24T11:33:00;9.27;;;5.13;;
72920;SDS011;61064;51.654;5.476;2023-07-24T11:35:27;11.63;;;5.25;;
72920;SDS011;61064;51.654;5.476;2023-07-24T11:37:53;9.40;;;5.07;;
72920;SDS011;61064;51.654;5.476;2023-07-24T11:40:19;8.48;;;5.00;;
72920;SDS011;61064;51.654;5.476;2023-07-24T11:42:46;10.20;;;5.55;;
72920;SDS011;61064;51.654;5.476;2023-07-24T11:45:13;8.82;;;5.07;;
72920;SDS011;61064;51.654;5.476;2023-07-24T11:47:45;10.20;;;4.83;;
72920;SDS011;61064;51.654;5.476;2023-07-24T11:50:12;10.23;;;5.20;;
72920;SDS011;61064;51.654;5.476;2023-07-24T11:52:39;9.65;;;4.93;;
72920;SDS011;61064;51.654;5.476;2023-07-24T11:55:06;8.38;;;4.78;;
72920;SDS011;61064;51.654;5.476;2023-07-24T11:57:32;9.80;;;5.07;;
72920;SDS011;61064;51.654;5.476;2023-07-24T11:59:57;9.23;;;4.97;;
72920;SDS011;61064;51.654;5.476;2023-07-24T12:02:26;9.17;;;4.90;;
72920;SDS011;61064;51.654;5.476;2023-07-24T12:04:55;9.57;;;5.20;;
72920;SDS011;61064;51.654;5.476;2023-07-24T12:07:32;8.38;;;4.72;;
72920;SDS011;61064;51.654;5.476;2023-07-24T12:09:59;9.20;;;5.00;;
72920;SDS011;61064;51.654;5.476;2023-07-24T12:12:36;9.27;;;4.90;;
72920;SDS011;61064;51.654;5.476;2023-07-24T12:15:11;10.80;;;5.50;;
72920;SDS011;61064;51.654;5.476;2023-07-24T12:17:37;9.63;;;5.40;;
72920;SDS011;61064;51.654;5.476;2023-07-24T12:20:03;9.30;;;4.93;;
72920;SDS011;61064;51.654;5.476;2023-07-24T12:22:33;8.88;;;4.80;;
72920;SDS011;61064;51.654;5.476;2023-07-24T12:24:59;10.88;;;5.30;;
72920;SDS011;61064;51.654;5.476;2023-07-24T12:27:25;12.13;;;5.90;;
72920;SDS011;61064;51.654;5.476;2023-07-24T12:29:51;10.25;;;5.60;;
72920;SDS011;61064;51.654;5.476;2023-07-24T12:32:17;10.23;;;5.40;;
72920;SDS011;61064;51.654;5.476;2023-07-24T12:34:43;9.20;;;5.45;;
72920;SDS011;61064;51.654;5.476;2023-07-24T12:37:09;12.93;;;5.82;;
72920;SDS011;61064;51.654;5.476;2023-07-24T12:39:38;10.37;;;6.50;;
72920;SDS011;61064;51.654;5.476;2023-07-24T12:42:04;11.30;;;7.18;;
72920;SDS011;61064;51.654;5.476;2023-07-24T12:44:30;13.73;;;7.53;;
72920;SDS011;61064;51.654;5.476;2023-07-24T12:46:55;12.53;;;7.63;;
72920;SDS011;61064;51.654;5.476;2023-07-24T12:49:21;12.47;;;7.93;;
72920;SDS011;61064;51.654;5.476;2023-07-24T12:51:46;12.33;;;8.07;;
72920;SDS011;61064;51.654;5.476;2023-07-24T12:54:11;12.70;;;7.50;;
72920;SDS011;61064;51.654;5.476;2023-07-24T12:56:37;12.45;;;7.15;;
72920;SDS011;61064;51.654;5.476;2023-07-24T12:59:02;11.93;;;6.90;;
72920;SDS011;61064;51.654;5.476;2023-07-24T13:01:28;13.67;;;6.43;;
72920;SDS011;61064;51.654;5.476;2023-07-24T13:03:54;11.00;;;6.47;;
72920;SDS011;61064;51.654;5.476;2023-07-24T13:06:20;13.80;;;7.38;;
72920;SDS011;61064;51.654;5.476;2023-07-24T13:08:46;12.90;;;7.53;;
72920;SDS011;61064;51.654;5.476;2023-07-24T13:11:12;12.80;;;6.90;;
72920;SDS011;61064;51.654;5.476;2023-07-24T13:13:37;12.57;;;7.55;;
72920;SDS011;61064;51.654;5.476;2023-07-24T13:16:03;13.57;;;7.23;;
72920;SDS011;61064;51.654;5.476;2023-07-24T13:18:29;11.57;;;7.67;;
72920;SDS011;61064;51.654;5.476;2023-07-24T13:20:54;12.48;;;7.55;;
72920;SDS011;61064;51.654;5.476;2023-07-24T13:23:20;11.73;;;7.43;;
72920;SDS011;61064;51.654;5.476;2023-07-24T13:25:46;13.48;;;7.75;;
72920;SDS011;61064;51.654;5.476;2023-07-24T13:28:11;13.63;;;8.20;;
72920;SDS011;61064;51.654;5.476;2023-07-24T13:30:37;15.53;;;8.70;;
72920;SDS011;61064;51.654;5.476;2023-07-24T13:33:02;13.13;;;8.37;;
72920;SDS011;61064;51.654;5.476;2023-07-24T13:35:27;13.25;;;8.52;;
72920;SDS011;61064;51.654;5.476;2023-07-24T13:37:53;15.67;;;8.93;;
72920;SDS011;61064;51.654;5.476;2023-07-24T13:40:18;12.73;;;8.37;;
72920;SDS011;61064;51.654;5.476;2023-07-24T13:42:44;14.47;;;9.00;;
72920;SDS011;61064;51.654;5.476;2023-07-24T13:45:09;14.60;;;9.10;;
72920;SDS011;61064;51.654;5.476;2023-07-24T13:47:35;13.80;;;8.60;;
72920;SDS011;61064;51.654;5.476;2023-07-24T13:50:01;15.47;;;9.23;;
72920;SDS011;61064;51.654;5.476;2023-07-24T13:52:28;14.75;;;9.18;;
72920;SDS011;61064;51.654;5.476;2023-07-24T13:54:58;17.73;;;10.18;;
72920;SDS011;61064;51.654;5.476;2023-07-24T13:57:23;17.63;;;10.20;;
72920;SDS011;61064;51.654;5.476;2023-07-24T13:59:49;17.30;;;10.23;;
72920;SDS011;61064;51.654;5.476;2023-07-24T14:02:14;19.20;;;10.85;;
72920;SDS011;61064;51.654;5.476;2023-07-24T14:04:40;17.13;;;10.33;;
72920;SDS011;61064;51.654;5.476;2023-07-24T14:07:08;15.40;;;9.13;;
72920;SDS011;61064;51.654;5.476;2023-07-24T14:09:34;16.00;;;10.43;;
72920;SDS011;61064;51.654;5.476;2023-07-24T14:12:00;17.77;;;10.17;;
72920;SDS011;61064;51.654;5.476;2023-07-24T14:14:26;16.30;;;9.75;;
72920;SDS011;61064;51.654;5.476;2023-07-24T14:16:51;15.73;;;9.83;;
72920;SDS011;61064;51.654;5.476;2023-07-24T14:19:17;15.30;;;9.17;;
72920;SDS011;61064;51.654;5.476;2023-07-24T14:21:43;13.77;;;8.88;;
72920;SDS011;61064;51.654;5.476;2023-07-24T14:24:10;15.02;;;9.18;;
72920;SDS011;61064;51.654;5.476;2023-07-24T14:26:36;13.07;;;7.85;;
72920;SDS011;61064;51.654;5.476;2023-07-24T14:29:02;12.87;;;8.20;;
72920;SDS011;61064;51.654;5.476;2023-07-24T14:31:28;13.20;;;7.53;;
72920;SDS011;61064;51.654;5.476;2023-07-24T14:33:55;13.13;;;8.18;;
72920;SDS011;61064;51.654;5.476;2023-07-24T14:36:21;12.63;;;7.57;;
72920;SDS011;61064;51.654;5.476;2023-07-24T14:38:46;14.10;;;8.10;;
72920;SDS011;61064;51.654;5.476;2023-07-24T14:41:12;12.55;;;7.60;;
72920;SDS011;61064;51.654;5.476;2023-07-24T14:43:39;14.97;;;8.10;;
72920;SDS011;61064;51.654;5.476;2023-07-24T14:46:05;13.67;;;7.87;;